Aviation Forecast - National Meteorological Service of Belize
  • Small Craft Caution in effect for gusty winds and locally rough seas.
Hurricane Tips
  •  Fill sinks, bathtub and large containers with water as an extra supply for washing and flushing.
  •  During the hurricane season, fisher folks are strongly advised to stay informed via radio, listen to the weather bulletin before venturing out to sea. Move your boat to safe harbor early.
  •  Prepare your car in case of evacuation. Fill your tank and check your tires.
  •  Upon alert, farmers should harvest crops which can be stored, consumed and sold.
 Monday, January 15, 2018     |     Print Forecast

From 1200, January 15, 2018   |   To 2400, January 15, 2018

All Heights in the forecast are above sea level. PS= Positive, MS= Minus. All times are UTC.

COOL AND MOSTLY DRY CONDITIONS PERSIST...
Height (ft) Wind (True Degrees and Knots) Temperature (°C)
Surface 32010 PS 25
2,000 35520 PS 15
5,000 32010 PS 09
10,000 07515 PS 07
GREATER THAN 10KM. 5-8KM IN SHRA/RA.
VARIABLY CLOUDY WITH LITTLE OR NO RAINFALL TODAY.
LOW CLOUDS COVERING HILLS. MOD TURB NEAR SFC.
RISING
CLOUDY SPELLS WITH ISOLATED SHOWERS OR PERIODS OF LIGHT RAIN OVER THE SOUTH.
150900Z 1512/1612 32010KT 9999 SCT022 SCT045=
Belize
05:30 January 15, 2018

Forecaster: Wellington, Francisca

Updated at: Jan 15, 2018 05:33 AM